Time;durP1;ratioP1;P1;durP2;ratioP2;P2;SDS_P1;SDS_P2;PMS_P1;PMS_P2;Temp;Humidity;BMP_temperature;BMP_pressure;BME280_temperature;BME280_humidity;BME280_pressure;Samples;Min_cycle;Max_cycle;Signal;HPM_P1;HPM_P2
2021/03/02 00:00:30;;;;;;;60.55;28.85;;;;;;;;;;8321396;28;20382;-67
2021/03/02 00:04:34;;;;;;;61.63;27.85;;;;;;;;;;8322718;28;20500;-66
2021/03/02 00:08:39;;;;;;;73.65;30.88;;;;;;;;;;8321303;28;20454;-66
2021/03/02 00:12:44;;;;;;;71.63;30.13;;;;;;;;;;8321908;28;20056;-66
2021/03/02 00:16:59;;;;;;;66.43;27.55;;;;;;;;;;8320914;28;20482;-66
2021/03/02 00:21:14;;;;;;;68.80;29.35;;;;;;;;;;8286167;28;20501;-66
2021/03/02 00:25:19;;;;;;;71.03;29.92;;;;;;;;;;8286807;28;20493;-66
2021/03/02 00:29:25;;;;;;;62.42;27.10;;;;;;;;;;8289352;28;20370;-66
2021/03/02 00:33:32;;;;;;;71.00;28.10;;;;;;;;;;8287846;28;20360;-66
2021/03/02 00:37:37;;;;;;;67.63;28.58;;;;;;;;;;8294281;28;20059;-66
2021/03/02 00:41:42;;;;;;;75.18;30.85;;;;;;;;;;8294673;28;20371;-66
2021/03/02 00:45:46;;;;;;;61.90;27.70;;;;;;;;;;8294104;28;20063;-67
2021/03/02 00:49:51;;;;;;;71.18;27.58;;;;;;;;;;8293328;28;20064;-66
2021/03/02 00:53:55;;;;;;;70.78;27.27;;;;;;;;;;8293519;28;20475;-66
2021/03/02 00:58:01;;;;;;;82.75;30.55;;;;;;;;;;8293981;28;20379;-68
2021/03/02 01:02:10;;;;;;;;;;;;;;;;;;8297931;28;20052;-68
2021/03/02 01:06:15;;;;;;;78.30;32.13;;;;;;;;;;8322657;28;19920;-68
2021/03/02 01:10:24;;;;;;;;;;;;;;;;;;8320545;28;20044;-68
2021/03/02 01:14:50;;;;;;;81.72;31.58;;;;;;;;;;8325849;28;19920;-68
2021/03/02 01:18:54;;;;;;;79.80;31.08;;;;;;;;;;8327659;28;20478;-67
2021/03/02 01:22:58;;;;;;;85.18;32.95;;;;;;;;;;8359954;28;20343;-67
2021/03/02 01:27:02;;;;;;;81.85;30.90;;;;;;;;;;8360183;28;20101;-67
2021/03/02 01:31:07;;;;;;;84.10;34.17;;;;;;;;;;8341074;28;20376;-68
2021/03/02 01:35:12;;;;;;;87.57;34.60;;;;;;;;;;8359279;28;20595;-67
2021/03/02 01:39:17;;;;;;;84.90;33.13;;;;;;;;;;8359023;28;20389;-68
2021/03/02 01:43:21;;;;;;;98.75;37.85;;;;;;;;;;8359071;28;20429;-67
2021/03/02 01:47:26;;;;;;;86.93;32.13;;;;;;;;;;8357989;28;20577;-68
2021/03/02 01:51:31;;;;;;;95.43;35.67;;;;;;;;;;8359941;28;20449;-68
2021/03/02 01:55:36;;;;;;;83.93;31.25;;;;;;;;;;8340386;28;20484;-68
2021/03/02 01:59:40;;;;;;;90.32;35.80;;;;;;;;;;8338819;28;20047;-68
2021/03/02 02:03:52;;;;;;;88.57;35.60;;;;;;;;;;8360857;28;20468;-68
2021/03/02 02:08:00;;;;;;;90.97;33.95;;;;;;;;;;8359738;28;20465;-67
2021/03/02 02:12:35;;;;;;;107.80;38.28;;;;;;;;;;8358901;28;20361;-68
2021/03/02 02:16:42;;;;;;;104.75;38.75;;;;;;;;;;8357213;28;20453;-67
2021/03/02 02:21:06;;;;;;;113.47;38.03;;;;;;;;;;8322025;28;20083;-67
2021/03/02 02:25:40;;;;;;;131.40;37.60;;;;;;;;;;8324489;28;20363;-67
2021/03/02 02:29:44;;;;;;;154.63;38.65;;;;;;;;;;8324025;28;20385;-68
2021/03/02 02:33:50;;;;;;;122.90;36.35;;;;;;;;;;8323540;28;20474;-68
2021/03/02 02:37:56;;;;;;;144.13;41.38;;;;;;;;;;8323239;28;20469;-67
2021/03/02 02:42:03;;;;;;;162.27;39.00;;;;;;;;;;8321524;28;20078;-67
2021/03/02 02:46:08;;;;;;;152.10;35.70;;;;;;;;;;8323579;28;20478;-68
2021/03/02 02:50:14;;;;;;;161.40;39.10;;;;;;;;;;8321399;28;20066;-68
2021/03/02 02:54:23;;;;;;;197.48;39.00;;;;;;;;;;8321753;28;20470;-68
2021/03/02 02:58:44;;;;;;;155.98;33.55;;;;;;;;;;8324860;28;20477;-68
2021/03/02 03:02:53;;;;;;;223.15;39.75;;;;;;;;;;8322982;28;20077;-68
2021/03/02 03:07:00;;;;;;;235.60;40.28;;;;;;;;;;8322797;28;20488;-69
2021/03/02 03:11:05;;;;;;;189.10;38.45;;;;;;;;;;8321376;28;20382;-68
2021/03/02 03:15:12;;;;;;;234.25;37.63;;;;;;;;;;8321251;28;20055;-68
2021/03/02 03:19:30;;;;;;;196.07;37.38;;;;;;;;;;8326286;28;20465;-67
2021/03/02 03:23:36;;;;;;;169.82;35.08;;;;;;;;;;8337938;28;20087;-68
2021/03/02 03:27:47;;;;;;;269.92;38.35;;;;;;;;;;8357388;28;20400;-68
2021/03/02 03:31:53;;;;;;;200.23;38.20;;;;;;;;;;8337547;28;20347;-68
2021/03/02 03:35:59;;;;;;;211.63;42.45;;;;;;;;;;8338301;28;20343;-68
2021/03/02 03:40:05;;;;;;;221.57;38.55;;;;;;;;;;8336986;28;20056;-68
2021/03/02 03:44:10;;;;;;;287.60;38.50;;;;;;;;;;8356637;28;20477;-68
2021/03/02 03:48:15;;;;;;;282.85;40.53;;;;;;;;;;8355170;28;20077;-67
2021/03/02 03:52:21;;;;;;;218.35;41.33;;;;;;;;;;8337616;28;20481;-68
2021/03/02 03:56:25;;;;;;;199.05;37.22;;;;;;;;;;8338940;28;20473;-68
2021/03/02 04:00:31;;;;;;;225.30;43.55;;;;;;;;;;8355127;28;20040;-68
2021/03/02 04:04:38;;;;;;;190.27;41.88;;;;;;;;;;8337677;28;20396;-68
2021/03/02 04:08:43;;;;;;;215.25;42.22;;;;;;;;;;8338342;28;20465;-69
2021/03/02 04:12:48;;;;;;;190.60;37.35;;;;;;;;;;8343566;28;20052;-67
2021/03/02 04:17:04;;;;;;;155.65;41.22;;;;;;;;;;8361627;28;20469;-68
2021/03/02 04:21:09;;;;;;;172.80;36.83;;;;;;;;;;8359590;28;20511;-68
2021/03/02 04:25:14;;;;;;;177.90;35.47;;;;;;;;;;8360554;28;20389;-68
2021/03/02 04:29:19;;;;;;;188.68;35.00;;;;;;;;;;8343037;28;20377;-67
2021/03/02 04:33:24;;;;;;;175.57;35.33;;;;;;;;;;8360636;28;20373;-68
2021/03/02 04:37:32;;;;;;;;;;;;;;;;;;8362324;28;20450;-68
2021/03/02 04:41:36;;;;;;;151.88;33.30;;;;;;;;;;8362598;28;20371;-68
2021/03/02 04:45:41;;;;;;;148.70;32.85;;;;;;;;;;8362081;28;20472;-68
2021/03/02 04:49:45;;;;;;;137.52;33.67;;;;;;;;;;8361774;28;20044;-68
2021/03/02 04:53:49;;;;;;;124.22;32.70;;;;;;;;;;8361971;28;20458;-68
2021/03/02 04:57:54;;;;;;;147.13;32.63;;;;;;;;;;8361050;28;20355;-68
2021/03/02 05:01:59;;;;;;;170.10;31.70;;;;;;;;;;8327093;28;20357;-68
2021/03/02 05:06:04;;;;;;;212.20;35.53;;;;;;;;;;8360074;28;20361;-68
2021/03/02 05:10:11;;;;;;;119.88;30.83;;;;;;;;;;8363048;28;20331;-68
2021/03/02 05:14:15;;;;;;;157.00;31.08;;;;;;;;;;8359184;28;20481;-69
2021/03/02 05:18:20;;;;;;;185.93;35.35;;;;;;;;;;8361445;28;20351;-68
2021/03/02 05:22:25;;;;;;;182.38;31.80;;;;;;;;;;8358075;28;20370;-68
2021/03/02 05:26:29;;;;;;;182.30;32.08;;;;;;;;;;8359563;28;20377;-68
2021/03/02 05:30:34;;;;;;;163.80;30.83;;;;;;;;;;8360473;28;20527;-68
2021/03/02 05:34:38;;;;;;;192.48;31.10;;;;;;;;;;8360370;28;20370;-68
2021/03/02 05:38:43;;;;;;;177.18;29.50;;;;;;;;;;8358820;28;20386;-68
2021/03/02 05:42:48;;;;;;;176.13;33.72;;;;;;;;;;8358428;28;20048;-68
2021/03/02 05:46:52;;;;;;;203.45;33.30;;;;;;;;;;8340647;28;20505;-67
2021/03/02 05:50:58;;;;;;;151.90;33.17;;;;;;;;;;8360338;28;20415;-68
2021/03/02 05:55:04;;;;;;;207.77;32.15;;;;;;;;;;8341740;28;20071;-68
2021/03/02 05:59:09;;;;;;;266.92;38.33;;;;;;;;;;8357970;28;20377;-67
2021/03/02 06:03:14;;;;;;;233.35;35.45;;;;;;;;;;8357575;28;20436;-68
2021/03/02 06:07:18;;;;;;;181.60;34.35;;;;;;;;;;8359976;28;20047;-68
2021/03/02 06:11:35;;;;;;;258.25;33.25;;;;;;;;;;8357282;28;20474;-68
2021/03/02 06:16:06;;;;;;;251.75;36.72;;;;;;;;;;8357550;28;20082;-68
2021/03/02 06:20:23;;;;;;;224.73;33.83;;;;;;;;;;8354168;28;20051;-68
2021/03/02 06:24:39;;;;;;;224.40;33.95;;;;;;;;;;8322598;28;20382;-68
2021/03/02 06:28:45;;;;;;;249.60;35.47;;;;;;;;;;8338568;28;20075;-69
2021/03/02 06:32:53;;;;;;;191.00;32.17;;;;;;;;;;8357279;28;20382;-68
2021/03/02 06:37:04;;;;;;;188.20;36.17;;;;;;;;;;8339351;28;20454;-70
2021/03/02 06:41:20;;;;;;;212.27;35.80;;;;;;;;;;8355275;28;20129;-68
2021/03/02 06:45:25;;;;;;;303.15;38.03;;;;;;;;;;8358781;28;20458;-68
2021/03/02 06:49:42;;;;;;;265.00;39.85;;;;;;;;;;8354874;28;20492;-68
2021/03/02 06:54:10;;;;;;;228.40;35.88;;;;;;;;;;8356854;28;20074;-68
2021/03/02 06:58:21;;;;;;;244.60;36.60;;;;;;;;;;8358101;28;20047;-68
2021/03/02 07:02:41;;;;;;;237.38;36.75;;;;;;;;;;8358029;28;20435;-68
2021/03/02 07:06:54;;;;;;;231.48;37.35;;;;;;;;;;8357094;28;20347;-67
2021/03/02 07:11:04;;;;;;;157.07;33.58;;;;;;;;;;8356218;28;20363;-68
2021/03/02 07:15:20;;;;;;;162.85;38.08;;;;;;;;;;8357301;28;20362;-67
2021/03/02 07:19:24;;;;;;;187.30;39.72;;;;;;;;;;8355357;28;20381;-67
2021/03/02 07:23:37;;;;;;;205.98;40.72;;;;;;;;;;8356787;28;20343;-67
2021/03/02 07:27:42;;;;;;;184.25;38.83;;;;;;;;;;8340712;28;20450;-68
2021/03/02 07:31:48;;;;;;;201.15;38.33;;;;;;;;;;8355663;28;20047;-68
2021/03/02 07:35:58;;;;;;;210.75;51.85;;;;;;;;;;8356215;28;20409;-67
2021/03/02 07:40:10;;;;;;;159.20;41.70;;;;;;;;;;8338894;28;20453;-69
2021/03/02 07:44:21;;;;;;;157.75;45.05;;;;;;;;;;8339448;28;20470;-67
2021/03/02 07:48:38;;;;;;;154.57;44.10;;;;;;;;;;8356821;28;20477;-67
2021/03/02 07:52:43;;;;;;;133.43;43.43;;;;;;;;;;8357865;28;20055;-68
2021/03/02 07:56:48;;;;;;;150.55;43.90;;;;;;;;;;8355472;28;20385;-69
2021/03/02 08:00:52;;;;;;;133.63;42.38;;;;;;;;;;8354189;28;20469;-68
2021/03/02 08:05:34;;;;;;;134.73;42.97;;;;;;;;;;8337589;28;20472;-67
2021/03/02 08:09:40;;;;;;;130.00;39.83;;;;;;;;;;8337979;28;20044;-67
2021/03/02 08:13:45;;;;;;;139.55;43.25;;;;;;;;;;8337527;28;20060;-67
2021/03/02 08:17:50;;;;;;;148.40;47.17;;;;;;;;;;8359627;28;20371;-68
2021/03/02 08:21:55;;;;;;;139.93;40.40;;;;;;;;;;8353586;28;20469;-67
2021/03/02 08:26:36;;;;;;;151.10;44.30;;;;;;;;;;8355572;28;20492;-68
2021/03/02 08:30:42;;;;;;;320.00;125.30;;;;;;;;;;8354915;28;20385;-67
2021/03/02 08:34:50;;;;;;;144.05;52.35;;;;;;;;;;8356222;28;20347;-68
2021/03/02 08:38:55;;;;;;;135.35;44.78;;;;;;;;;;8337805;28;20488;-67
2021/03/02 08:43:13;;;;;;;125.20;41.90;;;;;;;;;;8354553;28;20407;-67
2021/03/02 08:47:23;;;;;;;124.83;44.00;;;;;;;;;;8354193;28;20456;-67
2021/03/02 08:51:27;;;;;;;122.55;40.55;;;;;;;;;;8355665;28;20363;-67
2021/03/02 08:55:39;;;;;;;147.93;48.78;;;;;;;;;;8358278;28;20492;-67
2021/03/02 08:59:44;;;;;;;121.28;42.65;;;;;;;;;;8362424;28;20476;-67
2021/03/02 09:03:51;;;;;;;124.30;43.38;;;;;;;;;;8344779;28;20385;-67
2021/03/02 09:08:08;;;;;;;115.05;42.00;;;;;;;;;;8361990;28;20470;-69
2021/03/02 09:12:13;;;;;;;107.30;39.45;;;;;;;;;;8362496;28;20385;-68
2021/03/02 09:16:39;;;;;;;95.85;38.90;;;;;;;;;;8362355;28;20378;-67
2021/03/02 09:20:54;;;;;;;106.57;39.10;;;;;;;;;;8361926;28;20039;-68
2021/03/02 09:25:01;;;;;;;99.45;39.90;;;;;;;;;;8362434;28;20462;-68
2021/03/02 09:29:09;;;;;;;136.05;56.90;;;;;;;;;;8362355;28;20575;-68
2021/03/02 09:33:14;;;;;;;;;;;;;;;;;;8362809;28;20477;-66
2021/03/02 09:37:20;;;;;;;86.07;39.13;;;;;;;;;;8360817;28;20346;-69
2021/03/02 09:41:43;;;;;;;100.57;37.53;;;;;;;;;;8343464;28;20047;-68
2021/03/02 09:45:53;;;;;;;91.45;36.90;;;;;;;;;;8342454;28;20462;-69
2021/03/02 09:50:08;;;;;;;105.72;45.08;;;;;;;;;;8359851;28;20492;-73
2021/03/02 09:54:16;;;;;;;77.97;34.45;;;;;;;;;;8342167;28;20059;-69
2021/03/02 09:58:22;;;;;;;74.78;34.28;;;;;;;;;;8360570;28;20480;-69
2021/03/02 10:02:28;;;;;;;73.38;31.50;;;;;;;;;;8359148;28;20474;-69
2021/03/02 10:06:33;;;;;;;68.20;29.42;;;;;;;;;;8343583;28;20411;-70
2021/03/02 10:10:40;;;;;;;64.45;30.63;;;;;;;;;;8360565;28;20492;-69
2021/03/02 10:14:46;;;;;;;72.65;28.73;;;;;;;;;;8341755;28;20469;-68
2021/03/02 10:19:17;;;;;;;51.70;21.95;;;;;;;;;;8343599;28;20453;-69
2021/03/02 10:23:21;;;;;;;38.08;17.30;;;;;;;;;;8292194;28;20363;-69
2021/03/02 10:27:26;;;;;;;38.15;16.95;;;;;;;;;;8293208;28;20360;-69
2021/03/02 10:31:31;;;;;;;40.13;17.45;;;;;;;;;;8294015;28;20489;-69
2021/03/02 10:35:36;;;;;;;28.65;15.07;;;;;;;;;;8275002;28;20478;-68
2021/03/02 10:39:41;;;;;;;32.38;15.35;;;;;;;;;;8275931;28;20048;-69
2021/03/02 10:43:47;;;;;;;30.25;14.07;;;;;;;;;;8292135;28;20048;-69
2021/03/02 10:47:52;;;;;;;30.23;15.00;;;;;;;;;;8293354;28;20422;-69
2021/03/02 10:51:57;;;;;;;25.65;11.38;;;;;;;;;;8292227;28;20489;-69
2021/03/02 10:56:02;;;;;;;24.60;12.52;;;;;;;;;;8290930;28;20075;-69
2021/03/02 11:00:07;;;;;;;53.80;21.85;;;;;;;;;;8290827;28;20497;-69
2021/03/02 11:04:11;;;;;;;76.63;35.60;;;;;;;;;;8290311;28;20459;-69
2021/03/02 11:08:16;;;;;;;25.98;12.80;;;;;;;;;;8291159;28;20382;-69
2021/03/02 11:12:20;;;;;;;31.15;14.73;;;;;;;;;;8293713;28;20374;-69
2021/03/02 11:16:25;;;;;;;331.17;158.02;;;;;;;;;;8291066;28;20382;-69
2021/03/02 11:20:30;;;;;;;70.78;33.22;;;;;;;;;;8315212;28;20074;-69
2021/03/02 11:24:35;;;;;;;193.23;87.43;;;;;;;;;;8357600;28;20343;-70
2021/03/02 11:28:40;;;;;;;97.72;40.00;;;;;;;;;;8357185;28;20040;-69
2021/03/02 11:32:45;;;;;;;22.70;11.35;;;;;;;;;;8358157;28;20365;-66
2021/03/02 11:36:49;;;;;;;119.93;51.88;;;;;;;;;;8341133;28;20070;-69
2021/03/02 11:40:54;;;;;;;73.68;34.53;;;;;;;;;;8339539;28;20048;-69
2021/03/02 11:45:00;;;;;;;34.88;17.83;;;;;;;;;;8357650;28;20473;-69
2021/03/02 11:49:04;;;;;;;72.78;33.70;;;;;;;;;;8321847;28;20438;-69
2021/03/02 11:53:09;;;;;;;46.55;21.13;;;;;;;;;;8356453;28;20374;-69
2021/03/02 11:57:13;;;;;;;70.25;31.38;;;;;;;;;;8339578;28;20450;-68
2021/03/02 12:01:18;;;;;;;40.65;19.30;;;;;;;;;;8356766;28;20477;-69
2021/03/02 12:05:23;;;;;;;21.15;10.65;;;;;;;;;;8337292;28;20385;-69
2021/03/02 12:09:28;;;;;;;34.42;18.27;;;;;;;;;;8356639;28;20423;-69
2021/03/02 12:13:33;;;;;;;21.25;10.43;;;;;;;;;;8356931;28;20355;-70
2021/03/02 12:17:38;;;;;;;37.15;18.40;;;;;;;;;;8356396;28;20389;-69
2021/03/02 12:21:43;;;;;;;28.08;15.57;;;;;;;;;;8355254;28;20074;-69
2021/03/02 12:25:47;;;;;;;23.10;11.52;;;;;;;;;;8338695;28;20381;-69
2021/03/02 12:29:52;;;;;;;35.92;21.67;;;;;;;;;;8357939;28;20495;-69
2021/03/02 12:33:56;;;;;;;16.30;9.50;;;;;;;;;;8363145;28;20047;-69
2021/03/02 12:38:01;;;;;;;23.83;9.50;;;;;;;;;;8344881;28;20381;-69
2021/03/02 12:42:06;;;;;;;17.40;9.07;;;;;;;;;;8342387;28;20492;-69
2021/03/02 12:46:10;;;;;;;19.58;8.02;;;;;;;;;;8361077;28;20074;-69
2021/03/02 12:50:17;;;;;;;18.38;7.30;;;;;;;;;;8327658;28;20047;-69
2021/03/02 12:54:21;;;;;;;12.90;7.80;;;;;;;;;;8360324;28;20359;-69
2021/03/02 12:58:26;;;;;;;19.55;7.13;;;;;;;;;;8360664;28;20647;-69
2021/03/02 13:02:30;;;;;;;15.40;7.10;;;;;;;;;;8362404;28;20392;-66
2021/03/02 13:06:39;;;;;;;14.27;6.80;;;;;;;;;;8363010;28;20388;-69
2021/03/02 13:10:44;;;;;;;16.13;6.82;;;;;;;;;;8345276;28;20457;-68
2021/03/02 13:14:50;;;;;;;59.50;28.95;;;;;;;;;;8344206;28;20378;-68
2021/03/02 13:18:55;;;;;;;28.88;13.73;;;;;;;;;;8361902;28;20362;-69
2021/03/02 13:22:58;;;;;;;18.48;7.95;;;;;;;;;;8296641;28;20482;-68
2021/03/02 13:27:03;;;;;;;18.73;6.97;;;;;;;;;;8296254;28;20374;-69
2021/03/02 13:31:10;;;;;;;15.85;7.57;;;;;;;;;;8292516;28;20374;-68
2021/03/02 13:35:20;;;;;;;57.88;27.13;;;;;;;;;;8293167;28;20386;-68
2021/03/02 13:39:25;;;;;;;44.83;19.15;;;;;;;;;;8292689;28;20478;-68
2021/03/02 13:43:30;;;;;;;18.40;7.85;;;;;;;;;;8292228;28;20379;-68
2021/03/02 13:47:35;;;;;;;82.90;44.22;;;;;;;;;;8292651;28;20421;-68
2021/03/02 13:51:43;;;;;;;105.25;62.17;;;;;;;;;;8293533;28;20056;-69
2021/03/02 13:55:49;;;;;;;106.07;61.67;;;;;;;;;;8296610;28;20443;-68
2021/03/02 13:59:59;;;;;;;59.20;30.60;;;;;;;;;;8293664;28;20417;-68
2021/03/02 14:04:06;;;;;;;24.83;9.38;;;;;;;;;;8290663;28;20494;-68
2021/03/02 14:08:12;;;;;;;23.30;11.43;;;;;;;;;;8295314;28;20048;-69
2021/03/02 14:12:19;;;;;;;20.58;10.88;;;;;;;;;;8291446;28;21018;-69
2021/03/02 14:16:27;;;;;;;12.55;6.47;;;;;;;;;;8290498;28;20422;-68
2021/03/02 14:20:31;;;;;;;16.10;6.80;;;;;;;;;;8315517;28;20388;-68
2021/03/02 14:24:36;;;;;;;16.95;7.50;;;;;;;;;;8357538;28;20401;-69
2021/03/02 14:28:42;;;;;;;21.23;7.88;;;;;;;;;;8339585;28;20365;-69
2021/03/02 14:32:46;;;;;;;17.23;7.18;;;;;;;;;;8339795;28;20380;-68
2021/03/02 14:36:51;;;;;;;25.15;10.68;;;;;;;;;;8339575;28;20382;-69
2021/03/02 14:41:00;;;;;;;17.52;8.50;;;;;;;;;;8339159;28;20051;-68
2021/03/02 14:45:12;;;;;;;18.08;9.30;;;;;;;;;;8356625;28;20407;-70
2021/03/02 14:49:36;;;;;;;29.92;13.25;;;;;;;;;;8338386;28;20477;-71
2021/03/02 14:53:41;;;;;;;22.25;10.27;;;;;;;;;;8338298;28;20381;-70
2021/03/02 14:57:46;;;;;;;46.05;21.48;;;;;;;;;;8356485;28;20462;-69
2021/03/02 15:01:52;;;;;;;27.23;10.75;;;;;;;;;;8338144;28;20040;-69
2021/03/02 15:05:59;;;;;;;30.17;10.45;;;;;;;;;;8338193;28;20070;-70
2021/03/02 15:10:08;;;;;;;24.27;10.55;;;;;;;;;;8338440;28;20070;-69
2021/03/02 15:14:14;;;;;;;;;;;;;;;;;;8357262;28;20051;-70
2021/03/02 15:18:18;;;;;;;39.30;19.80;;;;;;;;;;8356393;28;20272;-70
2021/03/02 15:22:25;;;;;;;43.58;20.00;;;;;;;;;;8321076;28;20055;-69
2021/03/02 15:26:32;;;;;;;47.43;23.40;;;;;;;;;;8321118;28;20048;-69
2021/03/02 15:30:39;;;;;;;53.20;24.40;;;;;;;;;;8320702;28;20371;-69
2021/03/02 15:34:46;;;;;;;55.65;22.17;;;;;;;;;;8304837;28;20474;-71
2021/03/02 15:38:52;;;;;;;43.83;20.42;;;;;;;;;;8320767;28;20378;-69
2021/03/02 15:42:56;;;;;;;47.08;22.95;;;;;;;;;;8304639;28;20052;-69
2021/03/02 15:47:07;;;;;;;46.65;23.00;;;;;;;;;;8321965;28;20378;-69
2021/03/02 15:51:13;;;;;;;64.22;23.95;;;;;;;;;;8321136;28;20052;-68
2021/03/02 15:55:32;;;;;;;51.30;20.20;;;;;;;;;;8320987;28;20075;-70
2021/03/02 15:59:37;;;;;;;47.67;18.73;;;;;;;;;;8320957;28;20367;-69
2021/03/02 16:04:04;;;;;;;40.47;18.42;;;;;;;;;;8324343;28;20056;-70
2021/03/02 16:08:12;;;;;;;61.53;22.33;;;;;;;;;;8327773;28;20373;-69
2021/03/02 16:12:30;;;;;;;87.35;31.98;;;;;;;;;;8327087;28;20070;-69
2021/03/02 16:16:38;;;;;;;364.83;225.27;;;;;;;;;;8327426;28;20358;-70
2021/03/02 16:20:47;;;;;;;100.07;60.53;;;;;;;;;;8340049;28;20474;-69
2021/03/02 16:24:53;;;;;;;155.27;100.70;;;;;;;;;;8361636;28;20381;-70
2021/03/02 16:28:59;;;;;;;99.18;53.40;;;;;;;;;;8363423;28;20466;-70
2021/03/02 16:33:03;;;;;;;103.70;42.35;;;;;;;;;;8360559;28;20385;-69
2021/03/02 16:37:09;;;;;;;126.30;41.67;;;;;;;;;;8342185;28;20369;-70
2021/03/02 16:41:14;;;;;;;142.30;58.33;;;;;;;;;;8326205;28;20051;-69
2021/03/02 16:45:21;;;;;;;125.80;52.28;;;;;;;;;;8341824;28;20372;-69
2021/03/02 16:49:25;;;;;;;127.82;50.20;;;;;;;;;;8361649;28;20055;-69
2021/03/02 16:53:35;;;;;;;117.25;45.15;;;;;;;;;;8341390;28;20470;-69
2021/03/02 16:57:40;;;;;;;106.28;40.83;;;;;;;;;;8343061;28;20478;-69
2021/03/02 17:01:47;;;;;;;157.18;45.85;;;;;;;;;;8342896;28;20428;-69
2021/03/02 17:05:53;;;;;;;121.35;43.90;;;;;;;;;;8341753;28;20372;-69
2021/03/02 17:10:01;;;;;;;110.32;40.60;;;;;;;;;;8342315;28;20070;-70
2021/03/02 17:14:07;;;;;;;137.95;46.88;;;;;;;;;;8342409;28;20490;-70
2021/03/02 17:18:16;;;;;;;156.30;54.80;;;;;;;;;;8341066;28;20385;-69
2021/03/02 17:22:21;;;;;;;171.02;59.17;;;;;;;;;;8358676;28;20454;-69
2021/03/02 17:26:38;;;;;;;179.38;62.60;;;;;;;;;;8340686;28;20105;-69
2021/03/02 17:30:42;;;;;;;154.60;54.80;;;;;;;;;;8358856;28;20369;-69
2021/03/02 17:34:48;;;;;;;159.35;57.13;;;;;;;;;;8342472;28;20380;-70
2021/03/02 17:38:55;;;;;;;186.27;66.50;;;;;;;;;;8340050;28;20044;-69
2021/03/02 17:42:58;;;;;;;174.60;66.10;;;;;;;;;;8340361;28;20473;-70
2021/03/02 17:47:02;;;;;;;145.13;50.47;;;;;;;;;;8359424;28;20369;-69
2021/03/02 17:51:06;;;;;;;139.07;47.92;;;;;;;;;;8359461;28;20384;-69
2021/03/02 17:55:12;;;;;;;114.47;43.90;;;;;;;;;;8340114;28;20370;-69
2021/03/02 17:59:17;;;;;;;120.03;43.92;;;;;;;;;;8339688;28;20478;-67
2021/03/02 18:03:23;;;;;;;102.47;40.03;;;;;;;;;;8357435;28;20502;-68
2021/03/02 18:07:29;;;;;;;100.85;38.00;;;;;;;;;;8340517;28;20129;-68
2021/03/02 18:11:36;;;;;;;97.32;31.83;;;;;;;;;;8357721;28;20374;-70
2021/03/02 18:15:42;;;;;;;80.80;31.90;;;;;;;;;;8339950;28;20484;-69
2021/03/02 18:19:48;;;;;;;71.10;26.33;;;;;;;;;;8358374;28;20494;-69
2021/03/02 18:23:53;;;;;;;70.82;27.90;;;;;;;;;;8358786;28;20435;-70
2021/03/02 18:27:58;;;;;;;71.43;25.92;;;;;;;;;;8338974;28;20468;-68
2021/03/02 18:32:03;;;;;;;81.53;28.25;;;;;;;;;;8340592;28;20389;-69
2021/03/02 18:36:08;;;;;;;67.03;24.75;;;;;;;;;;8322932;28;20065;-69
2021/03/02 18:40:15;;;;;;;75.60;28.52;;;;;;;;;;8358356;28;20390;-69
2021/03/02 18:44:19;;;;;;;84.78;31.88;;;;;;;;;;8358792;28;20051;-68
2021/03/02 18:48:24;;;;;;;88.60;33.05;;;;;;;;;;8339781;28;20386;-68
2021/03/02 18:52:29;;;;;;;92.63;38.33;;;;;;;;;;8358045;28;20061;-68
2021/03/02 18:56:35;;;;;;;103.93;43.50;;;;;;;;;;8356646;28;20073;-69
2021/03/02 19:00:40;;;;;;;78.38;33.08;;;;;;;;;;8359046;28;20487;-69
2021/03/02 19:04:45;;;;;;;101.40;34.08;;;;;;;;;;8338077;28;20059;-68
2021/03/02 19:08:49;;;;;;;99.88;39.88;;;;;;;;;;8356471;28;20359;-68
2021/03/02 19:12:54;;;;;;;103.65;39.10;;;;;;;;;;8355752;28;20055;-68
2021/03/02 19:16:59;;;;;;;115.05;46.40;;;;;;;;;;8339626;28;20461;-68
2021/03/02 19:21:06;;;;;;;130.93;51.83;;;;;;;;;;8355552;28;20493;-68
2021/03/02 19:25:12;;;;;;;128.13;52.42;;;;;;;;;;8338963;28;20468;-68
2021/03/02 19:29:16;;;;;;;133.85;56.00;;;;;;;;;;8357801;28;20481;-68
2021/03/02 19:33:21;;;;;;;151.75;59.45;;;;;;;;;;8355804;28;20384;-68
2021/03/02 19:37:25;;;;;;;141.95;58.35;;;;;;;;;;8320738;28;20052;-69
2021/03/02 19:41:30;;;;;;;128.77;49.70;;;;;;;;;;8337135;28;20055;-68
2021/03/02 19:45:35;;;;;;;172.90;70.13;;;;;;;;;;8337791;28;20489;-68
2021/03/02 19:49:41;;;;;;;146.00;57.67;;;;;;;;;;8337217;28;20078;-69
2021/03/02 19:53:45;;;;;;;155.40;58.83;;;;;;;;;;8337134;28;20465;-69
2021/03/02 19:57:53;;;;;;;158.43;62.70;;;;;;;;;;8355830;28;20373;-69
2021/03/02 20:01:57;;;;;;;180.85;68.13;;;;;;;;;;8337556;28;20511;-68
2021/03/02 20:06:02;;;;;;;176.43;68.57;;;;;;;;;;8337757;28;20051;-68
2021/03/02 20:10:08;;;;;;;160.18;56.83;;;;;;;;;;8355103;28;20373;-68
2021/03/02 20:14:13;;;;;;;127.65;53.45;;;;;;;;;;8354636;28;20492;-68
2021/03/02 20:18:18;;;;;;;111.18;42.58;;;;;;;;;;8354699;28;20052;-69
2021/03/02 20:22:23;;;;;;;93.65;37.33;;;;;;;;;;8320201;28;20377;-68
2021/03/02 20:26:29;;;;;;;90.90;37.30;;;;;;;;;;8321825;28;20478;-69
2021/03/02 20:30:34;;;;;;;84.68;32.22;;;;;;;;;;8323002;28;20499;-68
2021/03/02 20:34:38;;;;;;;82.30;31.35;;;;;;;;;;8321054;28;20405;-68
2021/03/02 20:38:45;;;;;;;74.38;28.60;;;;;;;;;;8321532;28;20462;-68
2021/03/02 20:42:53;;;;;;;77.65;27.38;;;;;;;;;;8320888;28;20359;-68
2021/03/02 20:46:58;;;;;;;67.18;26.88;;;;;;;;;;8321299;28;20052;-68
2021/03/02 20:51:05;;;;;;;60.75;24.70;;;;;;;;;;8321395;28;20107;-68
2021/03/02 20:55:10;;;;;;;55.97;22.25;;;;;;;;;;8326207;28;20363;-69
2021/03/02 20:59:17;;;;;;;46.97;20.27;;;;;;;;;;8325841;28;20075;-68
2021/03/02 21:03:22;;;;;;;51.20;20.70;;;;;;;;;;8325781;28;20355;-68
2021/03/02 21:07:28;;;;;;;57.75;21.80;;;;;;;;;;8327598;28;20386;-69
2021/03/02 21:11:33;;;;;;;55.83;20.02;;;;;;;;;;8327556;28;20458;-69
2021/03/02 21:15:39;;;;;;;49.53;19.85;;;;;;;;;;8325943;28;20482;-69
2021/03/02 21:19:44;;;;;;;50.30;19.58;;;;;;;;;;8332199;28;20466;-68
2021/03/02 21:23:49;;;;;;;59.33;21.63;;;;;;;;;;8359374;28;20503;-68
2021/03/02 21:27:55;;;;;;;42.20;18.65;;;;;;;;;;8362366;28;20069;-70
2021/03/02 21:31:59;;;;;;;58.72;19.70;;;;;;;;;;8359671;28;20102;-69
2021/03/02 21:36:06;;;;;;;48.38;20.20;;;;;;;;;;8360056;28;20469;-69
2021/03/02 21:40:16;;;;;;;64.25;23.95;;;;;;;;;;8360396;28;20454;-69
2021/03/02 21:44:20;;;;;;;58.05;24.23;;;;;;;;;;8341298;28;20367;-69
2021/03/02 21:48:25;;;;;;;68.22;25.25;;;;;;;;;;8358609;28;20074;-68
2021/03/02 21:52:29;;;;;;;64.80;27.60;;;;;;;;;;8359334;28;20370;-69
2021/03/02 21:56:44;;;;;;;78.65;33.38;;;;;;;;;;8359425;28;20070;-68
2021/03/02 22:00:48;;;;;;;73.82;32.90;;;;;;;;;;8339946;28;20385;-69
2021/03/02 22:04:53;;;;;;;89.28;33.80;;;;;;;;;;8358263;28;20492;-69
2021/03/02 22:08:59;;;;;;;70.43;27.30;;;;;;;;;;8360238;28;20074;-69
2021/03/02 22:13:03;;;;;;;67.15;27.90;;;;;;;;;;8358188;28;20368;-69
2021/03/02 22:17:08;;;;;;;77.40;27.42;;;;;;;;;;8358741;28;20453;-70
2021/03/02 22:21:13;;;;;;;69.20;27.65;;;;;;;;;;8358532;28;20365;-72
2021/03/02 22:25:32;;;;;;;71.82;28.55;;;;;;;;;;8358133;28;20040;-68
2021/03/02 22:29:39;;;;;;;73.47;27.45;;;;;;;;;;8357645;28;20047;-70
2021/03/02 22:33:47;;;;;;;66.18;26.98;;;;;;;;;;8356873;28;20073;-69
2021/03/02 22:37:51;;;;;;;69.30;27.30;;;;;;;;;;8358548;28;20375;-69
2021/03/02 22:41:57;;;;;;;75.55;25.27;;;;;;;;;;8323289;28;20066;-69
2021/03/02 22:46:01;;;;;;;71.75;27.98;;;;;;;;;;8357069;28;20059;-69
2021/03/02 22:50:07;;;;;;;64.72;26.05;;;;;;;;;;8339448;28;20060;-69
2021/03/02 22:54:11;;;;;;;64.43;24.27;;;;;;;;;;8356897;28;20377;-69
2021/03/02 22:58:16;;;;;;;74.07;26.98;;;;;;;;;;8357368;28;20403;-69
2021/03/02 23:02:21;;;;;;;72.05;27.05;;;;;;;;;;8322185;28;20355;-69
2021/03/02 23:06:25;;;;;;;70.82;26.30;;;;;;;;;;8356710;28;20227;-69
2021/03/02 23:10:33;;;;;;;64.30;22.90;;;;;;;;;;8338456;28;20408;-71
2021/03/02 23:14:39;;;;;;;58.10;23.83;;;;;;;;;;8338231;28;20457;-69
2021/03/02 23:18:51;;;;;;;146.48;41.65;;;;;;;;;;8357344;28;20461;-69
2021/03/02 23:22:57;;;;;;;69.45;25.83;;;;;;;;;;8252475;28;20387;-70
2021/03/02 23:27:02;;;;;;;63.03;25.40;;;;;;;;;;8252752;28;20361;-71
2021/03/02 23:31:07;;;;;;;74.78;26.48;;;;;;;;;;8252567;28;20505;-70
2021/03/02 23:35:14;;;;;;;67.93;25.85;;;;;;;;;;8252875;28;20475;-69
2021/03/02 23:39:18;;;;;;;67.43;25.35;;;;;;;;;;8252147;28;20486;-69
2021/03/02 23:43:23;;;;;;;68.25;25.20;;;;;;;;;;8251228;28;20418;-71
2021/03/02 23:47:28;;;;;;;69.93;26.60;;;;;;;;;;8235735;28;20482;-69
2021/03/02 23:51:37;;;;;;;70.57;28.42;;;;;;;;;;8258429;28;20578;-69